Leflore, Oklahoma
Current Conditions -  °F | °C
As of 2:55 AM on Sunday 23 Nov 2014 (Local Time) from KRKR Reporting Station
Overcast Overcast  
Wind Chill: 60°   Ceiling: 2000
Heat Index: 60°   Visibility: 10mi
Dew Point: 56°   Wind: 0mph
Humidity: 86%   Direction: NA
Pressure: 29.65"   Gusts: NA
Location:  34.9°N, 94.98°W
Report Text: KRKR 230855Z AUTO 00000KT 10SM OVC020 16/13 A2965 RMK AO2 T01550131
Loading
Personal Weather Stations






























Interactive Weather Map New forecast layout! Learn more

10-Day Weather Forecast

Advertisements
Track Severe Weather on mobile